sensor_id;sensor_type;location;lat;lon;timestamp;P1;durP1;ratioP1;P2;durP2;ratioP2
74044;SDS011;62389;51.412;5.436;2023-04-24T00:01:40;16.33;;;8.55;;
74044;SDS011;62389;51.412;5.436;2023-04-24T00:04:06;19.60;;;9.60;;
74044;SDS011;62389;51.412;5.436;2023-04-24T00:06:32;14.82;;;9.00;;
74044;SDS011;62389;51.412;5.436;2023-04-24T00:09:01;18.30;;;8.57;;
74044;SDS011;62389;51.412;5.436;2023-04-24T00:11:27;17.42;;;8.75;;
74044;SDS011;62389;51.412;5.436;2023-04-24T00:13:53;17.63;;;9.45;;
74044;SDS011;62389;51.412;5.436;2023-04-24T00:16:18;16.25;;;9.60;;
74044;SDS011;62389;51.412;5.436;2023-04-24T00:18:44;20.30;;;9.57;;
74044;SDS011;62389;51.412;5.436;2023-04-24T00:21:10;18.42;;;9.70;;
74044;SDS011;62389;51.412;5.436;2023-04-24T00:23:35;20.27;;;10.07;;
74044;SDS011;62389;51.412;5.436;2023-04-24T00:26:01;16.58;;;9.50;;
74044;SDS011;62389;51.412;5.436;2023-04-24T00:28:27;16.30;;;8.32;;
74044;SDS011;62389;51.412;5.436;2023-04-24T00:30:53;19.10;;;8.90;;
74044;SDS011;62389;51.412;5.436;2023-04-24T00:33:19;14.77;;;8.23;;
74044;SDS011;62389;51.412;5.436;2023-04-24T00:35:44;15.90;;;9.07;;
74044;SDS011;62389;51.412;5.436;2023-04-24T00:38:09;17.45;;;8.07;;
74044;SDS011;62389;51.412;5.436;2023-04-24T00:40:35;14.57;;;9.27;;
74044;SDS011;62389;51.412;5.436;2023-04-24T00:43:00;16.83;;;8.95;;
74044;SDS011;62389;51.412;5.436;2023-04-24T00:45:26;16.05;;;8.25;;
74044;SDS011;62389;51.412;5.436;2023-04-24T00:47:52;18.85;;;9.70;;
74044;SDS011;62389;51.412;5.436;2023-04-24T00:50:17;17.73;;;10.27;;
74044;SDS011;62389;51.412;5.436;2023-04-24T00:52:44;15.07;;;9.23;;
74044;SDS011;62389;51.412;5.436;2023-04-24T00:55:09;21.10;;;10.13;;
74044;SDS011;62389;51.412;5.436;2023-04-24T00:57:36;17.73;;;9.30;;
74044;SDS011;62389;51.412;5.436;2023-04-24T01:00:02;16.88;;;9.73;;
74044;SDS011;62389;51.412;5.436;2023-04-24T01:02:28;19.65;;;10.32;;
74044;SDS011;62389;51.412;5.436;2023-04-24T01:04:54;23.13;;;11.40;;
74044;SDS011;62389;51.412;5.436;2023-04-24T01:07:20;21.33;;;10.32;;
74044;SDS011;62389;51.412;5.436;2023-04-24T01:09:46;23.45;;;12.27;;
74044;SDS011;62389;51.412;5.436;2023-04-24T01:12:14;24.15;;;10.98;;
74044;SDS011;62389;51.412;5.436;2023-04-24T01:14:40;23.10;;;11.48;;
74044;SDS011;62389;51.412;5.436;2023-04-24T01:17:05;24.45;;;11.52;;
74044;SDS011;62389;51.412;5.436;2023-04-24T01:19:31;23.27;;;12.05;;
74044;SDS011;62389;51.412;5.436;2023-04-24T01:21:58;23.88;;;11.13;;
74044;SDS011;62389;51.412;5.436;2023-04-24T01:24:24;23.27;;;12.20;;
74044;SDS011;62389;51.412;5.436;2023-04-24T01:26:49;21.05;;;11.48;;
74044;SDS011;62389;51.412;5.436;2023-04-24T01:29:15;23.58;;;11.27;;
74044;SDS011;62389;51.412;5.436;2023-04-24T01:31:40;22.55;;;12.23;;
74044;SDS011;62389;51.412;5.436;2023-04-24T01:34:06;23.40;;;12.60;;
74044;SDS011;62389;51.412;5.436;2023-04-24T01:36:33;24.77;;;12.65;;
74044;SDS011;62389;51.412;5.436;2023-04-24T01:39:00;23.27;;;11.43;;
74044;SDS011;62389;51.412;5.436;2023-04-24T01:41:25;23.27;;;13.20;;
74044;SDS011;62389;51.412;5.436;2023-04-24T01:43:51;26.73;;;12.95;;
74044;SDS011;62389;51.412;5.436;2023-04-24T01:46:17;22.90;;;11.77;;
74044;SDS011;62389;51.412;5.436;2023-04-24T01:48:42;24.33;;;13.55;;
74044;SDS011;62389;51.412;5.436;2023-04-24T01:53:35;23.20;;;13.87;;
74044;SDS011;62389;51.412;5.436;2023-04-24T01:56:00;28.08;;;12.25;;
74044;SDS011;62389;51.412;5.436;2023-04-24T01:58:26;27.55;;;13.23;;
74044;SDS011;62389;51.412;5.436;2023-04-24T02:00:52;26.52;;;14.75;;
74044;SDS011;62389;51.412;5.436;2023-04-24T02:03:17;23.23;;;12.18;;
74044;SDS011;62389;51.412;5.436;2023-04-24T02:05:45;21.83;;;12.02;;
74044;SDS011;62389;51.412;5.436;2023-04-24T02:08:11;24.45;;;11.90;;
74044;SDS011;62389;51.412;5.436;2023-04-24T02:10:36;23.67;;;13.55;;
74044;SDS011;62389;51.412;5.436;2023-04-24T02:13:01;24.50;;;14.88;;
74044;SDS011;62389;51.412;5.436;2023-04-24T02:15:27;24.85;;;14.73;;
74044;SDS011;62389;51.412;5.436;2023-04-24T02:17:52;24.13;;;12.05;;
74044;SDS011;62389;51.412;5.436;2023-04-24T02:20:18;21.45;;;11.02;;
74044;SDS011;62389;51.412;5.436;2023-04-24T02:22:43;27.35;;;15.30;;
74044;SDS011;62389;51.412;5.436;2023-04-24T02:25:09;24.00;;;12.55;;
74044;SDS011;62389;51.412;5.436;2023-04-24T02:27:34;23.60;;;12.98;;
74044;SDS011;62389;51.412;5.436;2023-04-24T02:30:00;23.77;;;12.57;;
74044;SDS011;62389;51.412;5.436;2023-04-24T02:32:25;26.38;;;12.77;;
74044;SDS011;62389;51.412;5.436;2023-04-24T02:34:51;22.10;;;11.75;;
74044;SDS011;62389;51.412;5.436;2023-04-24T02:37:16;24.80;;;12.07;;
74044;SDS011;62389;51.412;5.436;2023-04-24T02:39:41;22.27;;;11.65;;
74044;SDS011;62389;51.412;5.436;2023-04-24T02:42:07;22.85;;;12.32;;
74044;SDS011;62389;51.412;5.436;2023-04-24T02:44:33;26.00;;;12.70;;
74044;SDS011;62389;51.412;5.436;2023-04-24T02:46:58;26.75;;;13.35;;
74044;SDS011;62389;51.412;5.436;2023-04-24T02:49:23;24.75;;;11.98;;
74044;SDS011;62389;51.412;5.436;2023-04-24T02:51:49;23.50;;;12.95;;
74044;SDS011;62389;51.412;5.436;2023-04-24T02:54:14;21.42;;;12.95;;
74044;SDS011;62389;51.412;5.436;2023-04-24T02:56:39;20.42;;;10.43;;
74044;SDS011;62389;51.412;5.436;2023-04-24T02:59:05;21.85;;;11.93;;
74044;SDS011;62389;51.412;5.436;2023-04-24T03:01:30;21.40;;;11.40;;
74044;SDS011;62389;51.412;5.436;2023-04-24T03:03:56;21.52;;;10.18;;
74044;SDS011;62389;51.412;5.436;2023-04-24T03:06:21;17.80;;;10.57;;
74044;SDS011;62389;51.412;5.436;2023-04-24T03:08:47;20.55;;;10.93;;
74044;SDS011;62389;51.412;5.436;2023-04-24T03:11:13;20.25;;;10.20;;
74044;SDS011;62389;51.412;5.436;2023-04-24T03:13:38;21.60;;;10.93;;
74044;SDS011;62389;51.412;5.436;2023-04-24T03:16:03;19.45;;;10.30;;
74044;SDS011;62389;51.412;5.436;2023-04-24T03:18:29;22.92;;;11.82;;
74044;SDS011;62389;51.412;5.436;2023-04-24T03:20:55;21.30;;;10.57;;
74044;SDS011;62389;51.412;5.436;2023-04-24T03:23:20;20.73;;;10.50;;
74044;SDS011;62389;51.412;5.436;2023-04-24T03:25:46;20.77;;;10.45;;
74044;SDS011;62389;51.412;5.436;2023-04-24T03:28:13;17.05;;;9.23;;
74044;SDS011;62389;51.412;5.436;2023-04-24T03:30:38;19.38;;;10.23;;
74044;SDS011;62389;51.412;5.436;2023-04-24T03:33:04;23.77;;;9.88;;
74044;SDS011;62389;51.412;5.436;2023-04-24T03:35:29;20.92;;;9.38;;
74044;SDS011;62389;51.412;5.436;2023-04-24T03:37:55;16.45;;;9.50;;
74044;SDS011;62389;51.412;5.436;2023-04-24T03:40:20;17.42;;;10.02;;
74044;SDS011;62389;51.412;5.436;2023-04-24T03:42:45;15.88;;;8.80;;
74044;SDS011;62389;51.412;5.436;2023-04-24T03:45:11;19.27;;;9.63;;
74044;SDS011;62389;51.412;5.436;2023-04-24T03:47:36;17.65;;;9.20;;
74044;SDS011;62389;51.412;5.436;2023-04-24T03:50:02;16.27;;;9.20;;
74044;SDS011;62389;51.412;5.436;2023-04-24T03:52:27;20.67;;;10.35;;
74044;SDS011;62389;51.412;5.436;2023-04-24T03:54:52;22.02;;;10.43;;
74044;SDS011;62389;51.412;5.436;2023-04-24T03:57:18;17.50;;;9.30;;
74044;SDS011;62389;51.412;5.436;2023-04-24T03:59:43;14.45;;;8.50;;
74044;SDS011;62389;51.412;5.436;2023-04-24T04:02:09;17.90;;;10.43;;
74044;SDS011;62389;51.412;5.436;2023-04-24T04:04:34;16.65;;;8.95;;
74044;SDS011;62389;51.412;5.436;2023-04-24T04:06:59;15.80;;;9.38;;
74044;SDS011;62389;51.412;5.436;2023-04-24T04:09:27;15.27;;;8.35;;
74044;SDS011;62389;51.412;5.436;2023-04-24T04:11:53;15.27;;;8.93;;
74044;SDS011;62389;51.412;5.436;2023-04-24T04:14:18;15.57;;;8.68;;
74044;SDS011;62389;51.412;5.436;2023-04-24T04:16:44;14.38;;;8.20;;
74044;SDS011;62389;51.412;5.436;2023-04-24T04:19:09;14.05;;;7.72;;
74044;SDS011;62389;51.412;5.436;2023-04-24T04:21:35;13.43;;;8.07;;
74044;SDS011;62389;51.412;5.436;2023-04-24T04:24:00;16.20;;;7.65;;
74044;SDS011;62389;51.412;5.436;2023-04-24T04:26:26;12.50;;;7.72;;
74044;SDS011;62389;51.412;5.436;2023-04-24T04:28:52;14.10;;;6.57;;
74044;SDS011;62389;51.412;5.436;2023-04-24T04:31:18;13.45;;;8.43;;
74044;SDS011;62389;51.412;5.436;2023-04-24T04:33:44;17.80;;;7.97;;
74044;SDS011;62389;51.412;5.436;2023-04-24T04:36:10;12.98;;;7.22;;
74044;SDS011;62389;51.412;5.436;2023-04-24T04:38:35;14.57;;;7.47;;
74044;SDS011;62389;51.412;5.436;2023-04-24T04:41:01;12.00;;;6.40;;
74044;SDS011;62389;51.412;5.436;2023-04-24T04:43:27;12.40;;;7.60;;
74044;SDS011;62389;51.412;5.436;2023-04-24T04:45:53;14.73;;;7.18;;
74044;SDS011;62389;51.412;5.436;2023-04-24T04:48:19;12.52;;;7.53;;
74044;SDS011;62389;51.412;5.436;2023-04-24T04:50:44;13.32;;;6.50;;
74044;SDS011;62389;51.412;5.436;2023-04-24T04:53:10;12.07;;;6.80;;
74044;SDS011;62389;51.412;5.436;2023-04-24T04:55:35;14.00;;;7.18;;
74044;SDS011;62389;51.412;5.436;2023-04-24T04:58:01;12.63;;;6.57;;
74044;SDS011;62389;51.412;5.436;2023-04-24T05:00:27;10.35;;;6.63;;
74044;SDS011;62389;51.412;5.436;2023-04-24T05:02:53;10.48;;;6.18;;
74044;SDS011;62389;51.412;5.436;2023-04-24T05:05:19;12.40;;;7.32;;
74044;SDS011;62389;51.412;5.436;2023-04-24T05:07:45;9.90;;;6.20;;
74044;SDS011;62389;51.412;5.436;2023-04-24T05:10:11;12.50;;;6.78;;
74044;SDS011;62389;51.412;5.436;2023-04-24T05:12:36;9.88;;;6.13;;
74044;SDS011;62389;51.412;5.436;2023-04-24T05:15:02;9.10;;;5.82;;
74044;SDS011;62389;51.412;5.436;2023-04-24T05:17:28;6.68;;;4.63;;
74044;SDS011;62389;51.412;5.436;2023-04-24T05:19:53;6.22;;;3.92;;
74044;SDS011;62389;51.412;5.436;2023-04-24T05:22:19;6.15;;;3.55;;
74044;SDS011;62389;51.412;5.436;2023-04-24T05:24:45;7.05;;;3.20;;
74044;SDS011;62389;51.412;5.436;2023-04-24T05:27:11;5.60;;;2.95;;
74044;SDS011;62389;51.412;5.436;2023-04-24T05:29:36;6.07;;;2.97;;
74044;SDS011;62389;51.412;5.436;2023-04-24T05:32:02;5.53;;;2.97;;
74044;SDS011;62389;51.412;5.436;2023-04-24T05:34:27;5.05;;;2.30;;
74044;SDS011;62389;51.412;5.436;2023-04-24T05:36:52;5.10;;;2.85;;
74044;SDS011;62389;51.412;5.436;2023-04-24T05:39:18;4.45;;;2.63;;
74044;SDS011;62389;51.412;5.436;2023-04-24T05:41:44;5.75;;;2.60;;
74044;SDS011;62389;51.412;5.436;2023-04-24T05:44:10;5.72;;;2.58;;
74044;SDS011;62389;51.412;5.436;2023-04-24T05:46:35;6.38;;;2.55;;
74044;SDS011;62389;51.412;5.436;2023-04-24T05:49:01;6.03;;;2.05;;
74044;SDS011;62389;51.412;5.436;2023-04-24T05:51:27;5.28;;;2.53;;
74044;SDS011;62389;51.412;5.436;2023-04-24T05:53:53;5.68;;;2.65;;
74044;SDS011;62389;51.412;5.436;2023-04-24T05:56:18;4.32;;;2.17;;
74044;SDS011;62389;51.412;5.436;2023-04-24T05:58:44;4.47;;;2.22;;
74044;SDS011;62389;51.412;5.436;2023-04-24T06:01:11;5.38;;;2.28;;
74044;SDS011;62389;51.412;5.436;2023-04-24T06:03:37;4.25;;;2.53;;
74044;SDS011;62389;51.412;5.436;2023-04-24T06:06:03;4.65;;;2.45;;
74044;SDS011;62389;51.412;5.436;2023-04-24T06:08:28;4.88;;;3.00;;
74044;SDS011;62389;51.412;5.436;2023-04-24T06:10:54;6.28;;;2.67;;
74044;SDS011;62389;51.412;5.436;2023-04-24T06:13:19;6.53;;;3.08;;
74044;SDS011;62389;51.412;5.436;2023-04-24T06:15:45;5.72;;;2.70;;
74044;SDS011;62389;51.412;5.436;2023-04-24T06:18:10;7.85;;;3.00;;
74044;SDS011;62389;51.412;5.436;2023-04-24T06:20:36;9.52;;;4.47;;
74044;SDS011;62389;51.412;5.436;2023-04-24T06:23:01;7.85;;;3.75;;
74044;SDS011;62389;51.412;5.436;2023-04-24T06:25:27;6.50;;;3.65;;
74044;SDS011;62389;51.412;5.436;2023-04-24T06:27:53;9.32;;;4.78;;
74044;SDS011;62389;51.412;5.436;2023-04-24T06:30:19;9.50;;;5.85;;
74044;SDS011;62389;51.412;5.436;2023-04-24T06:32:44;12.18;;;5.28;;
74044;SDS011;62389;51.412;5.436;2023-04-24T06:35:10;14.30;;;6.53;;
74044;SDS011;62389;51.412;5.436;2023-04-24T06:37:37;8.32;;;4.97;;
74044;SDS011;62389;51.412;5.436;2023-04-24T06:40:03;13.23;;;7.18;;
74044;SDS011;62389;51.412;5.436;2023-04-24T06:42:29;12.80;;;6.88;;
74044;SDS011;62389;51.412;5.436;2023-04-24T06:44:55;15.70;;;9.80;;
74044;SDS011;62389;51.412;5.436;2023-04-24T06:47:20;14.57;;;8.25;;
74044;SDS011;62389;51.412;5.436;2023-04-24T06:49:45;19.02;;;9.57;;
74044;SDS011;62389;51.412;5.436;2023-04-24T06:52:11;15.07;;;7.35;;
74044;SDS011;62389;51.412;5.436;2023-04-24T06:54:36;19.83;;;12.57;;
74044;SDS011;62389;51.412;5.436;2023-04-24T06:57:01;20.23;;;10.20;;
74044;SDS011;62389;51.412;5.436;2023-04-24T06:59:28;16.75;;;8.45;;
74044;SDS011;62389;51.412;5.436;2023-04-24T07:01:54;20.42;;;10.20;;
74044;SDS011;62389;51.412;5.436;2023-04-24T07:04:20;19.33;;;9.38;;
74044;SDS011;62389;51.412;5.436;2023-04-24T07:06:45;19.55;;;9.20;;
74044;SDS011;62389;51.412;5.436;2023-04-24T07:09:14;19.42;;;9.50;;
74044;SDS011;62389;51.412;5.436;2023-04-24T07:11:40;21.45;;;8.77;;
74044;SDS011;62389;51.412;5.436;2023-04-24T07:14:06;20.13;;;8.63;;
74044;SDS011;62389;51.412;5.436;2023-04-24T07:16:32;19.38;;;8.98;;
74044;SDS011;62389;51.412;5.436;2023-04-24T07:18:57;15.73;;;8.68;;
74044;SDS011;62389;51.412;5.436;2023-04-24T07:21:23;22.17;;;10.48;;
74044;SDS011;62389;51.412;5.436;2023-04-24T07:23:48;21.92;;;12.10;;
74044;SDS011;62389;51.412;5.436;2023-04-24T07:26:13;18.05;;;9.35;;
74044;SDS011;62389;51.412;5.436;2023-04-24T07:28:40;17.92;;;8.35;;
74044;SDS011;62389;51.412;5.436;2023-04-24T07:31:05;19.52;;;8.80;;
74044;SDS011;62389;51.412;5.436;2023-04-24T07:33:31;17.30;;;7.78;;
74044;SDS011;62389;51.412;5.436;2023-04-24T07:35:56;14.82;;;7.88;;
74044;SDS011;62389;51.412;5.436;2023-04-24T07:38:21;14.55;;;7.55;;
74044;SDS011;62389;51.412;5.436;2023-04-24T07:40:47;19.40;;;7.47;;
74044;SDS011;62389;51.412;5.436;2023-04-24T07:43:13;16.17;;;8.63;;
74044;SDS011;62389;51.412;5.436;2023-04-24T07:45:39;17.38;;;6.07;;
74044;SDS011;62389;51.412;5.436;2023-04-24T07:48:04;12.77;;;5.97;;
74044;SDS011;62389;51.412;5.436;2023-04-24T07:50:30;17.38;;;6.60;;
74044;SDS011;62389;51.412;5.436;2023-04-24T07:52:56;16.23;;;6.70;;
74044;SDS011;62389;51.412;5.436;2023-04-24T07:55:22;13.68;;;6.32;;
74044;SDS011;62389;51.412;5.436;2023-04-24T07:57:47;11.32;;;6.93;;
74044;SDS011;62389;51.412;5.436;2023-04-24T08:00:13;16.95;;;6.80;;
74044;SDS011;62389;51.412;5.436;2023-04-24T08:02:39;12.98;;;5.93;;
74044;SDS011;62389;51.412;5.436;2023-04-24T08:05:04;14.27;;;6.10;;
74044;SDS011;62389;51.412;5.436;2023-04-24T08:07:31;13.43;;;6.05;;
74044;SDS011;62389;51.412;5.436;2023-04-24T08:09:57;20.15;;;7.20;;
74044;SDS011;62389;51.412;5.436;2023-04-24T08:12:24;14.93;;;6.65;;
74044;SDS011;62389;51.412;5.436;2023-04-24T08:14:49;20.77;;;7.28;;
74044;SDS011;62389;51.412;5.436;2023-04-24T08:17:16;20.85;;;7.25;;
74044;SDS011;62389;51.412;5.436;2023-04-24T08:19:42;22.98;;;8.43;;
74044;SDS011;62389;51.412;5.436;2023-04-24T08:22:12;12.35;;;5.90;;
74044;SDS011;62389;51.412;5.436;2023-04-24T08:24:37;13.35;;;6.82;;
74044;SDS011;62389;51.412;5.436;2023-04-24T08:27:03;17.17;;;6.97;;
74044;SDS011;62389;51.412;5.436;2023-04-24T08:29:28;16.23;;;7.03;;
74044;SDS011;62389;51.412;5.436;2023-04-24T08:31:54;14.63;;;6.97;;
74044;SDS011;62389;51.412;5.436;2023-04-24T08:34:20;21.92;;;5.90;;
74044;SDS011;62389;51.412;5.436;2023-04-24T08:36:46;18.88;;;6.85;;
74044;SDS011;62389;51.412;5.436;2023-04-24T08:39:11;15.35;;;5.40;;
74044;SDS011;62389;51.412;5.436;2023-04-24T08:41:36;13.20;;;5.63;;
74044;SDS011;62389;51.412;5.436;2023-04-24T08:44:02;10.25;;;4.63;;
74044;SDS011;62389;51.412;5.436;2023-04-24T08:46:29;15.90;;;5.13;;
74044;SDS011;62389;51.412;5.436;2023-04-24T08:48:55;13.82;;;6.40;;
74044;SDS011;62389;51.412;5.436;2023-04-24T08:51:21;13.13;;;4.95;;
74044;SDS011;62389;51.412;5.436;2023-04-24T08:53:47;11.13;;;4.38;;
74044;SDS011;62389;51.412;5.436;2023-04-24T08:56:13;17.85;;;5.43;;
74044;SDS011;62389;51.412;5.436;2023-04-24T08:58:39;14.82;;;5.13;;
74044;SDS011;62389;51.412;5.436;2023-04-24T09:01:06;15.85;;;4.85;;
74044;SDS011;62389;51.412;5.436;2023-04-24T09:03:32;14.13;;;4.22;;
74044;SDS011;62389;51.412;5.436;2023-04-24T09:05:58;11.38;;;5.20;;
74044;SDS011;62389;51.412;5.436;2023-04-24T09:08:24;7.70;;;3.40;;
74044;SDS011;62389;51.412;5.436;2023-04-24T09:10:51;6.78;;;3.17;;
74044;SDS011;62389;51.412;5.436;2023-04-24T09:13:17;10.20;;;3.28;;
74044;SDS011;62389;51.412;5.436;2023-04-24T09:15:44;9.75;;;3.00;;
74044;SDS011;62389;51.412;5.436;2023-04-24T09:18:09;11.82;;;3.17;;
74044;SDS011;62389;51.412;5.436;2023-04-24T09:20:35;11.02;;;2.92;;
74044;SDS011;62389;51.412;5.436;2023-04-24T09:23:28;10.65;;;3.63;;
74044;SDS011;62389;51.412;5.436;2023-04-24T09:25:55;9.23;;;3.03;;
74044;SDS011;62389;51.412;5.436;2023-04-24T09:28:25;7.75;;;2.50;;
74044;SDS011;62389;51.412;5.436;2023-04-24T09:31:17;9.10;;;2.92;;
74044;SDS011;62389;51.412;5.436;2023-04-24T09:34:05;9.75;;;3.20;;
74044;SDS011;62389;51.412;5.436;2023-04-24T09:36:36;10.48;;;3.70;;
74044;SDS011;62389;51.412;5.436;2023-04-24T09:39:06;12.68;;;3.45;;
74044;SDS011;62389;51.412;5.436;2023-04-24T09:44:21;8.73;;;2.83;;
74044;SDS011;62389;51.412;5.436;2023-04-24T09:46:55;10.10;;;2.90;;
74044;SDS011;62389;51.412;5.436;2023-04-24T09:49:28;8.10;;;4.10;;
74044;SDS011;62389;51.412;5.436;2023-04-24T09:54:36;6.05;;;2.60;;
74044;SDS011;62389;51.412;5.436;2023-04-24T09:57:02;14.57;;;4.38;;
74044;SDS011;62389;51.412;5.436;2023-04-24T09:59:28;5.43;;;2.60;;
74044;SDS011;62389;51.412;5.436;2023-04-24T10:01:54;4.30;;;2.17;;
74044;SDS011;62389;51.412;5.436;2023-04-24T10:06:46;5.28;;;3.22;;
74044;SDS011;62389;51.412;5.436;2023-04-24T10:09:13;9.25;;;2.65;;
74044;SDS011;62389;51.412;5.436;2023-04-24T10:11:42;7.30;;;2.08;;
74044;SDS011;62389;51.412;5.436;2023-04-24T10:14:13;6.43;;;2.03;;
74044;SDS011;62389;51.412;5.436;2023-04-24T10:16:40;8.65;;;2.13;;
74044;SDS011;62389;51.412;5.436;2023-04-24T10:19:06;6.03;;;2.03;;
74044;SDS011;62389;51.412;5.436;2023-04-24T10:21:32;8.98;;;2.22;;
74044;SDS011;62389;51.412;5.436;2023-04-24T10:23:59;8.65;;;2.92;;
74044;SDS011;62389;51.412;5.436;2023-04-24T10:26:25;8.77;;;2.22;;
74044;SDS011;62389;51.412;5.436;2023-04-24T10:28:52;7.13;;;2.40;;
74044;SDS011;62389;51.412;5.436;2023-04-24T10:31:19;7.32;;;2.22;;
74044;SDS011;62389;51.412;5.436;2023-04-24T10:33:46;10.40;;;2.78;;
74044;SDS011;62389;51.412;5.436;2023-04-24T10:36:11;7.47;;;2.47;;
74044;SDS011;62389;51.412;5.436;2023-04-24T10:38:39;6.10;;;2.63;;
74044;SDS011;62389;51.412;5.436;2023-04-24T10:41:07;8.35;;;2.80;;
74044;SDS011;62389;51.412;5.436;2023-04-24T10:44:10;6.68;;;1.95;;
74044;SDS011;62389;51.412;5.436;2023-04-24T10:46:39;4.75;;;2.20;;
74044;SDS011;62389;51.412;5.436;2023-04-24T10:49:07;3.97;;;1.45;;
74044;SDS011;62389;51.412;5.436;2023-04-24T10:51:52;6.78;;;1.60;;
74044;SDS011;62389;51.412;5.436;2023-04-24T10:59:47;4.32;;;1.50;;
74044;SDS011;62389;51.412;5.436;2023-04-24T11:04:40;4.18;;;2.08;;
74044;SDS011;62389;51.412;5.436;2023-04-24T11:07:06;5.72;;;1.70;;
74044;SDS011;62389;51.412;5.436;2023-04-24T11:09:31;7.80;;;1.63;;
74044;SDS011;62389;51.412;5.436;2023-04-24T11:12:07;5.13;;;1.42;;
74044;SDS011;62389;51.412;5.436;2023-04-24T11:17:30;4.75;;;1.23;;
74044;SDS011;62389;51.412;5.436;2023-04-24T11:20:07;2.88;;;1.35;;
74044;SDS011;62389;51.412;5.436;2023-04-24T11:22:38;5.22;;;1.25;;
74044;SDS011;62389;51.412;5.436;2023-04-24T11:25:06;3.85;;;1.05;;
74044;SDS011;62389;51.412;5.436;2023-04-24T11:27:40;5.45;;;1.85;;
74044;SDS011;62389;51.412;5.436;2023-04-24T11:30:07;3.72;;;1.30;;
74044;SDS011;62389;51.412;5.436;2023-04-24T11:35:02;3.40;;;1.10;;
74044;SDS011;62389;51.412;5.436;2023-04-24T11:37:33;5.05;;;1.50;;
74044;SDS011;62389;51.412;5.436;2023-04-24T11:40:01;3.53;;;1.30;;
74044;SDS011;62389;51.412;5.436;2023-04-24T11:42:27;2.50;;;1.13;;
74044;SDS011;62389;51.412;5.436;2023-04-24T11:44:53;4.35;;;1.35;;
74044;SDS011;62389;51.412;5.436;2023-04-24T11:47:27;2.72;;;1.52;;
74044;SDS011;62389;51.412;5.436;2023-04-24T11:49:57;2.92;;;1.13;;
74044;SDS011;62389;51.412;5.436;2023-04-24T11:52:23;3.08;;;1.17;;
74044;SDS011;62389;51.412;5.436;2023-04-24T11:54:49;2.17;;;1.05;;
74044;SDS011;62389;51.412;5.436;2023-04-24T11:57:15;3.22;;;1.13;;
74044;SDS011;62389;51.412;5.436;2023-04-24T11:59:41;3.53;;;1.25;;
74044;SDS011;62389;51.412;5.436;2023-04-24T12:02:06;2.60;;;0.90;;
74044;SDS011;62389;51.412;5.436;2023-04-24T12:04:40;3.67;;;1.23;;
74044;SDS011;62389;51.412;5.436;2023-04-24T12:07:06;4.38;;;1.20;;
74044;SDS011;62389;51.412;5.436;2023-04-24T12:12:23;3.63;;;1.20;;
74044;SDS011;62389;51.412;5.436;2023-04-24T12:14:59;4.82;;;1.20;;
74044;SDS011;62389;51.412;5.436;2023-04-24T12:19:50;2.65;;;0.85;;
74044;SDS011;62389;51.412;5.436;2023-04-24T12:22:15;2.38;;;1.40;;
74044;SDS011;62389;51.412;5.436;2023-04-24T12:27:33;2.35;;;0.93;;
74044;SDS011;62389;51.412;5.436;2023-04-24T12:29:59;5.40;;;1.23;;
74044;SDS011;62389;51.412;5.436;2023-04-24T12:32:26;5.70;;;2.13;;
74044;SDS011;62389;51.412;5.436;2023-04-24T12:34:53;3.05;;;1.02;;
74044;SDS011;62389;51.412;5.436;2023-04-24T12:37:19;4.55;;;1.42;;
74044;SDS011;62389;51.412;5.436;2023-04-24T12:42:33;4.05;;;1.23;;
74044;SDS011;62389;51.412;5.436;2023-04-24T12:45:01;2.20;;;0.88;;
74044;SDS011;62389;51.412;5.436;2023-04-24T12:47:29;3.05;;;1.00;;
74044;SDS011;62389;51.412;5.436;2023-04-24T12:49:55;3.33;;;1.17;;
74044;SDS011;62389;51.412;5.436;2023-04-24T12:52:23;4.43;;;1.70;;
74044;SDS011;62389;51.412;5.436;2023-04-24T12:54:53;4.53;;;1.23;;
74044;SDS011;62389;51.412;5.436;2023-04-24T12:57:20;4.68;;;0.98;;
74044;SDS011;62389;51.412;5.436;2023-04-24T12:59:46;3.78;;;1.10;;
74044;SDS011;62389;51.412;5.436;2023-04-24T13:02:11;2.05;;;0.88;;
74044;SDS011;62389;51.412;5.436;2023-04-24T13:04:37;3.55;;;1.30;;
74044;SDS011;62389;51.412;5.436;2023-04-24T13:07:03;4.80;;;1.63;;
74044;SDS011;62389;51.412;5.436;2023-04-24T13:09:30;4.35;;;1.35;;
74044;SDS011;62389;51.412;5.436;2023-04-24T13:11:55;4.22;;;1.50;;
74044;SDS011;62389;51.412;5.436;2023-04-24T13:14:21;4.30;;;1.50;;
74044;SDS011;62389;51.412;5.436;2023-04-24T13:16:47;3.22;;;1.23;;
74044;SDS011;62389;51.412;5.436;2023-04-24T13:19:13;4.22;;;1.55;;
74044;SDS011;62389;51.412;5.436;2023-04-24T13:21:38;4.32;;;2.22;;
74044;SDS011;62389;51.412;5.436;2023-04-24T13:24:04;4.07;;;1.70;;
74044;SDS011;62389;51.412;5.436;2023-04-24T13:26:30;5.15;;;2.08;;
74044;SDS011;62389;51.412;5.436;2023-04-24T13:28:56;7.35;;;1.88;;
74044;SDS011;62389;51.412;5.436;2023-04-24T13:31:21;3.38;;;1.58;;
74044;SDS011;62389;51.412;5.436;2023-04-24T13:33:46;3.78;;;1.80;;
74044;SDS011;62389;51.412;5.436;2023-04-24T13:36:12;3.78;;;1.70;;
74044;SDS011;62389;51.412;5.436;2023-04-24T13:38:37;4.38;;;1.67;;
74044;SDS011;62389;51.412;5.436;2023-04-24T13:41:02;4.95;;;2.08;;
74044;SDS011;62389;51.412;5.436;2023-04-24T13:43:28;4.65;;;1.65;;
74044;SDS011;62389;51.412;5.436;2023-04-24T13:45:53;3.08;;;1.42;;
74044;SDS011;62389;51.412;5.436;2023-04-24T13:48:19;5.25;;;1.85;;
74044;SDS011;62389;51.412;5.436;2023-04-24T13:50:44;5.18;;;1.33;;
74044;SDS011;62389;51.412;5.436;2023-04-24T13:53:10;3.53;;;1.65;;
74044;SDS011;62389;51.412;5.436;2023-04-24T13:55:35;3.55;;;1.13;;
74044;SDS011;62389;51.412;5.436;2023-04-24T13:58:01;2.92;;;1.00;;
74044;SDS011;62389;51.412;5.436;2023-04-24T14:00:27;5.68;;;1.88;;
74044;SDS011;62389;51.412;5.436;2023-04-24T14:02:52;3.28;;;1.42;;
74044;SDS011;62389;51.412;5.436;2023-04-24T14:05:18;4.30;;;1.35;;
74044;SDS011;62389;51.412;5.436;2023-04-24T14:07:43;6.38;;;1.73;;
74044;SDS011;62389;51.412;5.436;2023-04-24T14:10:09;4.70;;;2.13;;
74044;SDS011;62389;51.412;5.436;2023-04-24T14:12:35;3.65;;;1.55;;
74044;SDS011;62389;51.412;5.436;2023-04-24T14:15:00;4.72;;;1.70;;
74044;SDS011;62389;51.412;5.436;2023-04-24T14:17:26;5.10;;;1.63;;
74044;SDS011;62389;51.412;5.436;2023-04-24T14:19:52;3.67;;;1.52;;
74044;SDS011;62389;51.412;5.436;2023-04-24T14:22:20;3.38;;;2.70;;
74044;SDS011;62389;51.412;5.436;2023-04-24T14:24:46;5.55;;;1.80;;
74044;SDS011;62389;51.412;5.436;2023-04-24T14:27:11;6.88;;;1.45;;
74044;SDS011;62389;51.412;5.436;2023-04-24T14:29:36;5.43;;;1.90;;
74044;SDS011;62389;51.412;5.436;2023-04-24T14:32:02;3.05;;;2.00;;
74044;SDS011;62389;51.412;5.436;2023-04-24T14:34:27;3.17;;;1.85;;
74044;SDS011;62389;51.412;5.436;2023-04-24T14:36:52;6.82;;;1.90;;
74044;SDS011;62389;51.412;5.436;2023-04-24T14:39:18;3.95;;;1.70;;
74044;SDS011;62389;51.412;5.436;2023-04-24T14:41:44;4.07;;;1.58;;
74044;SDS011;62389;51.412;5.436;2023-04-24T14:44:09;5.30;;;1.65;;
74044;SDS011;62389;51.412;5.436;2023-04-24T14:46:35;8.40;;;1.90;;
74044;SDS011;62389;51.412;5.436;2023-04-24T14:49:01;4.47;;;2.03;;
74044;SDS011;62389;51.412;5.436;2023-04-24T14:51:26;4.15;;;1.45;;
74044;SDS011;62389;51.412;5.436;2023-04-24T14:53:52;4.85;;;1.60;;
74044;SDS011;62389;51.412;5.436;2023-04-24T14:56:17;9.75;;;2.20;;
74044;SDS011;62389;51.412;5.436;2023-04-24T14:58:43;4.05;;;1.33;;
74044;SDS011;62389;51.412;5.436;2023-04-24T15:01:08;3.00;;;1.42;;
74044;SDS011;62389;51.412;5.436;2023-04-24T15:03:34;4.13;;;2.25;;
74044;SDS011;62389;51.412;5.436;2023-04-24T15:05:59;2.83;;;1.30;;
74044;SDS011;62389;51.412;5.436;2023-04-24T15:08:26;3.55;;;1.35;;